Time;durP1;ratioP1;P1;durP2;ratioP2;P2;SDS_P1;SDS_P2;PMS_P1;PMS_P2;Temp;Humidity;BMP_temperature;BMP_pressure;BME280_temperature;BME280_humidity;BME280_pressure;Samples;Min_cycle;Max_cycle;Signal;HPM_P1;HPM_P2
2022/01/13 00:01:16;;;;;;;32.08;19.55;;;-0.10;99.90;;;;;;4926665;29;20036;-80
2022/01/13 00:03:42;;;;;;;35.80;20.80;;;-0.20;99.90;;;;;;4927420;29;20403;-79
2022/01/13 00:06:08;;;;;;;34.30;20.02;;;-0.30;99.90;;;;;;4895368;29;20068;-78
2022/01/13 00:19:19;;;;;;;36.03;20.77;;;-0.30;99.90;;;;;;4985220;28;20034;-79
2022/01/13 00:24:35;;;;;;;38.85;23.02;;;-0.20;99.90;;;;;;4954433;28;20038;-81
2022/01/13 00:27:09;;;;;;;36.13;20.83;;;-0.20;99.90;;;;;;4968726;28;20033;-81
2022/01/13 00:29:34;;;;;;;37.08;22.42;;;-0.10;99.90;;;;;;4986561;28;20114;-80
2022/01/13 00:32:00;;;;;;;37.88;21.67;;;0.00;99.90;;;;;;4964591;28;20348;-80
2022/01/13 00:34:26;;;;;;;37.90;21.85;;;0.00;99.90;;;;;;4966957;29;20027;-81
2022/01/13 00:37:10;;;;;;;37.58;21.02;;;0.10;99.90;;;;;;4966177;29;20062;-81
2022/01/13 00:39:36;;;;;;;33.30;20.42;;;0.30;99.90;;;;;;4950067;29;20074;-81
2022/01/13 00:42:03;;;;;;;32.63;19.70;;;0.50;99.90;;;;;;4966539;29;20277;-81
2022/01/13 00:44:35;;;;;;;33.92;20.33;;;0.50;99.90;;;;;;4965912;28;20034;-81
2022/01/13 00:47:01;;;;;;;32.75;20.08;;;0.50;99.90;;;;;;4965525;29;20055;-80
2022/01/13 00:49:27;;;;;;;37.10;21.55;;;0.50;99.90;;;;;;4966606;29;20071;-79
2022/01/13 00:51:54;;;;;;;39.90;22.10;;;0.50;99.90;;;;;;4965419;29;20030;-79
2022/01/13 00:54:20;;;;;;;38.28;21.30;;;0.60;99.90;;;;;;4949192;29;20070;-81
2022/01/13 00:56:46;;;;;;;39.33;22.33;;;0.60;99.90;;;;;;4949722;28;20031;-82
2022/01/13 00:59:13;;;;;;;41.88;23.88;;;0.50;99.90;;;;;;4966181;29;20031;-81
2022/01/13 01:01:48;;;;;;;41.15;22.27;;;0.40;99.90;;;;;;4966906;29;20043;-79
2022/01/13 01:04:15;;;;;;;39.10;22.55;;;0.50;99.90;;;;;;4951770;28;20054;-79
2022/01/13 01:06:41;;;;;;;41.47;22.33;;;0.30;99.90;;;;;;4985205;28;20093;-80
2022/01/13 01:09:14;;;;;;;40.55;22.90;;;0.40;99.90;;;;;;4968293;28;20106;-79
2022/01/13 01:11:41;;;;;;;40.33;22.75;;;0.40;99.90;;;;;;4968453;28;20105;-80
2022/01/13 01:14:08;;;;;;;38.83;22.38;;;0.50;99.90;;;;;;4983998;28;20019;-80
2022/01/13 01:16:36;;;;;;;37.30;21.63;;;0.50;99.90;;;;;;4985829;28;20031;-80
2022/01/13 01:19:06;;;;;;;38.30;22.30;;;0.50;99.90;;;;;;4967843;28;20073;-79
2022/01/13 01:21:53;;;;;;;40.03;23.20;;;0.40;99.90;;;;;;4968147;28;20030;-80
2022/01/13 01:26:55;;;;;;;40.60;22.92;;;0.50;99.90;;;;;;4968303;28;20023;-78
2022/01/13 01:29:27;;;;;;;42.10;22.40;;;0.50;99.90;;;;;;4967725;28;20026;-80
2022/01/13 01:31:55;;;;;;;42.17;23.52;;;0.50;99.90;;;;;;4984681;28;20249;-80
2022/01/13 01:37:16;;;;;;;38.88;23.17;;;0.20;99.90;;;;;;4984793;28;20382;-78
2022/01/13 01:39:44;;;;;;;41.28;23.30;;;0.00;99.90;;;;;;4985395;28;20038;-78
2022/01/13 01:42:11;;;;;;;41.08;23.45;;;-0.10;99.90;;;;;;4984567;28;20086;-78
2022/01/13 01:44:41;;;;;;;41.25;23.65;;;0.00;99.90;;;;;;4984388;28;20035;-79
2022/01/13 01:47:10;;;;;;;39.47;22.08;;;0.00;99.90;;;;;;4967780;28;20102;-79
2022/01/13 01:49:40;;;;;;;;;;;0.00;99.90;;;;;;4985586;28;20098;-79
2022/01/13 01:52:08;;;;;;;39.35;21.98;;;0.00;99.90;;;;;;4967445;28;19988;-78
2022/01/13 01:54:35;;;;;;;42.88;23.20;;;0.00;99.90;;;;;;4985299;28;20322;-78
2022/01/13 01:57:01;;;;;;;45.05;26.17;;;0.00;99.90;;;;;;4967205;28;20213;-80
2022/01/13 01:59:30;;;;;;;43.72;23.98;;;0.10;99.90;;;;;;4967870;28;20031;-79
2022/01/13 02:01:57;;;;;;;44.00;24.35;;;0.10;99.90;;;;;;4967876;28;20055;-79
2022/01/13 02:08:10;;;;;;;43.42;23.77;;;0.10;99.90;;;;;;4965124;29;20277;-80
2022/01/13 02:10:36;;;;;;;46.05;24.95;;;0.20;99.90;;;;;;4965701;29;20035;-81
2022/01/13 02:13:07;;;;;;;42.50;23.05;;;0.20;99.90;;;;;;4948025;29;20077;-81
2022/01/13 02:15:35;;;;;;;39.10;21.95;;;0.30;99.90;;;;;;4948373;29;20047;-81
2022/01/13 02:18:05;;;;;;;45.22;24.58;;;0.20;99.90;;;;;;4931086;29;20047;-79
2022/01/13 02:21:01;;;;;;;41.90;23.35;;;0.30;99.90;;;;;;4948529;29;20063;-79
2022/01/13 02:23:38;;;;;;;42.85;23.67;;;0.20;99.90;;;;;;4953334;29;20051;-77
2022/01/13 02:26:07;;;;;;;39.00;23.48;;;0.00;99.90;;;;;;4964991;29;20031;-77
2022/01/13 02:28:34;;;;;;;;;;;0.00;99.90;;;;;;4948442;29;20026;-79
2022/01/13 02:31:00;;;;;;;38.15;22.80;;;0.00;99.90;;;;;;4964242;29;19906;-78
2022/01/13 02:33:26;;;;;;;34.35;20.85;;;0.00;99.90;;;;;;4963459;29;20027;-79
2022/01/13 02:35:52;;;;;;;39.90;22.73;;;0.00;99.90;;;;;;4947972;29;20054;-79
2022/01/13 02:38:18;;;;;;;39.58;22.83;;;0.00;99.90;;;;;;4947076;29;20317;-79
2022/01/13 02:40:50;;;;;;;40.33;23.17;;;0.00;99.90;;;;;;4964842;29;20027;-79
2022/01/13 02:43:16;;;;;;;36.47;21.83;;;-0.10;99.90;;;;;;4963560;29;20082;-78
2022/01/13 02:46:02;;;;;;;39.05;23.55;;;-0.10;99.90;;;;;;4964741;29;20295;-78
2022/01/13 02:48:30;;;;;;;41.97;23.27;;;-0.10;99.90;;;;;;4931629;29;20031;-79
2022/01/13 02:50:57;;;;;;;39.47;22.58;;;-0.10;99.90;;;;;;4964826;29;20023;-78
2022/01/13 02:53:23;;;;;;;37.20;22.05;;;-0.10;99.90;;;;;;4964433;29;20242;-78
2022/01/13 02:55:50;;;;;;;41.83;23.20;;;-0.10;99.90;;;;;;4947374;29;20355;-81
2022/01/13 02:58:17;;;;;;;46.33;23.60;;;0.00;99.90;;;;;;4964035;29;20031;-78
2022/01/13 03:00:43;;;;;;;49.67;25.88;;;0.00;99.90;;;;;;4947352;29;20046;-78
2022/01/13 03:03:10;;;;;;;51.35;26.05;;;-0.10;99.90;;;;;;4969499;28;20103;-79
2022/01/13 03:05:38;;;;;;;48.63;25.70;;;-0.10;99.90;;;;;;4973821;28;20074;-79
2022/01/13 03:08:08;;;;;;;46.53;25.38;;;-0.10;99.90;;;;;;4968181;28;20018;-79
2022/01/13 03:10:34;;;;;;;46.88;25.20;;;-0.10;99.90;;;;;;4968429;28;20041;-79
2022/01/13 03:13:01;;;;;;;42.95;24.42;;;-0.20;99.90;;;;;;4966689;28;20027;-78
2022/01/13 03:15:27;;;;;;;43.08;24.75;;;-0.20;99.90;;;;;;4983114;28;20038;-79
2022/01/13 03:17:52;;;;;;;42.53;24.55;;;-0.20;99.90;;;;;;4984034;28;20089;-79
2022/01/13 03:20:18;;;;;;;41.90;23.95;;;-0.40;99.90;;;;;;4983328;28;20309;-79
2022/01/13 03:22:44;;;;;;;48.90;25.30;;;-0.40;99.90;;;;;;4966220;28;20203;-79
2022/01/13 03:25:10;;;;;;;48.83;25.30;;;-0.50;99.90;;;;;;4966046;28;20082;-78
2022/01/13 03:27:37;;;;;;;52.25;26.10;;;-0.50;99.90;;;;;;4950357;28;20034;-81
2022/01/13 03:30:06;;;;;;;45.38;23.98;;;-0.60;99.90;;;;;;4966025;28;20035;-78
2022/01/13 03:32:37;;;;;;;53.55;26.17;;;-0.60;99.90;;;;;;4966110;28;20019;-80
2022/01/13 03:35:05;;;;;;;52.03;26.65;;;-0.70;99.90;;;;;;4983341;28;20027;-79
2022/01/13 03:37:31;;;;;;;48.63;25.98;;;-0.70;99.90;;;;;;4965711;28;20063;-78
2022/01/13 03:39:58;;;;;;;46.53;23.77;;;-0.70;99.90;;;;;;4983379;28;20357;-80
2022/01/13 03:42:24;;;;;;;42.95;22.40;;;-0.80;99.90;;;;;;4982475;28;20058;-79
2022/01/13 03:44:50;;;;;;;42.35;23.73;;;-0.70;99.90;;;;;;4983352;28;20073;-79
2022/01/13 03:47:16;;;;;;;39.78;22.67;;;-0.70;99.90;;;;;;4966300;28;20030;-79
2022/01/13 03:49:43;;;;;;;39.80;22.27;;;-0.60;99.90;;;;;;4949713;28;20039;-79
2022/01/13 03:52:23;;;;;;;42.53;22.30;;;-0.70;99.90;;;;;;4983164;28;20072;-80
2022/01/13 03:55:23;;;;;;;42.90;22.20;;;-0.70;99.90;;;;;;4983368;28;20065;-81
2022/01/13 03:58:11;;;;;;;39.67;22.30;;;-0.70;99.90;;;;;;4966487;28;20113;-79
2022/01/13 04:00:47;;;;;;;;;;;-0.70;99.90;;;;;;4966372;28;20049;-79
2022/01/13 04:03:12;;;;;;;42.75;22.45;;;-0.60;99.90;;;;;;4976235;28;19943;-79
2022/01/13 04:06:08;;;;;;;47.78;23.45;;;-0.60;99.90;;;;;;4964072;29;20265;-79
2022/01/13 04:08:34;;;;;;;44.47;22.17;;;-0.60;99.90;;;;;;4963860;29;20329;-79
2022/01/13 04:11:06;;;;;;;39.60;22.38;;;-0.60;99.90;;;;;;4946158;29;20094;-79
2022/01/13 04:13:57;;;;;;;36.40;21.25;;;-0.50;99.90;;;;;;4961877;29;20054;-78
2022/01/13 04:16:25;;;;;;;35.20;21.92;;;-0.50;99.90;;;;;;4945408;29;20325;-79
2022/01/13 04:18:52;;;;;;;36.17;20.88;;;-0.50;99.90;;;;;;4962221;29;20031;-78
2022/01/13 04:21:19;;;;;;;30.60;17.57;;;-0.40;99.90;;;;;;4961626;28;20090;-78
2022/01/13 04:23:46;;;;;;;36.55;21.40;;;-0.40;99.90;;;;;;4946363;29;20356;-79
2022/01/13 04:26:16;;;;;;;35.58;20.38;;;-0.60;99.90;;;;;;4963151;29;20090;-78
2022/01/13 04:28:42;;;;;;;37.05;21.33;;;-0.60;99.90;;;;;;4963661;29;20023;-79
2022/01/13 04:31:08;;;;;;;42.38;23.20;;;-0.50;99.90;;;;;;4946585;29;20360;-79
2022/01/13 04:33:36;;;;;;;39.33;22.05;;;-0.50;99.90;;;;;;4963171;29;20325;-78
2022/01/13 04:36:04;;;;;;;43.80;22.10;;;-0.50;99.90;;;;;;4946226;29;20040;-78
2022/01/13 04:38:30;;;;;;;;;;;-0.40;99.90;;;;;;4945884;29;20052;-78
2022/01/13 04:40:58;;;;;;;34.70;19.38;;;-0.40;99.90;;;;;;4946331;29;19945;-78
2022/01/13 04:43:24;;;;;;;;;;;-0.30;99.90;;;;;;4949344;29;20073;-78
2022/01/13 04:45:51;;;;;;;33.67;19.35;;;-0.30;99.90;;;;;;4949683;29;20205;-78
2022/01/13 04:48:17;;;;;;;35.38;19.77;;;-0.30;99.90;;;;;;4949111;29;20055;-78
2022/01/13 04:50:44;;;;;;;32.55;19.98;;;-0.20;99.90;;;;;;4966604;29;20058;-79
2022/01/13 04:53:10;;;;;;;32.10;19.17;;;-0.30;99.90;;;;;;4966132;29;20032;-80
2022/01/13 04:55:37;;;;;;;31.30;18.38;;;-0.30;99.90;;;;;;4949051;29;20090;-79
2022/01/13 04:58:05;;;;;;;35.42;20.02;;;-0.30;99.90;;;;;;4949427;29;20086;-79
2022/01/13 05:00:32;;;;;;;32.93;20.00;;;-0.30;99.90;;;;;;4932912;29;20252;-78
2022/01/13 05:02:58;;;;;;;33.15;20.38;;;-0.40;99.90;;;;;;4970440;28;20066;-79
2022/01/13 05:05:25;;;;;;;34.50;19.33;;;-0.30;99.90;;;;;;4985002;28;20030;-79
2022/01/13 05:07:51;;;;;;;33.17;19.35;;;-0.40;99.90;;;;;;4968422;28;20324;-79
2022/01/13 05:10:16;;;;;;;33.97;18.90;;;-0.40;99.90;;;;;;4984971;28;20034;-80
2022/01/13 05:12:47;;;;;;;34.33;19.88;;;-0.30;99.90;;;;;;4985679;28;20034;-78
2022/01/13 05:15:24;;;;;;;35.58;20.10;;;-0.40;99.90;;;;;;4985241;28;20058;-79
2022/01/13 05:20:23;;;;;;;37.05;20.70;;;-0.30;99.90;;;;;;4971728;28;20336;-78
2022/01/13 05:22:50;;;;;;;35.47;19.70;;;-0.30;99.90;;;;;;4952206;28;20098;-78
2022/01/13 05:25:17;;;;;;;34.17;19.73;;;-0.30;99.90;;;;;;4967674;28;20035;-81
2022/01/13 05:27:43;;;;;;;33.88;19.75;;;-0.30;99.90;;;;;;4985408;28;20039;-78
2022/01/13 05:30:10;;;;;;;30.30;18.58;;;-0.30;99.90;;;;;;4968279;28;20038;-78
2022/01/13 05:32:35;;;;;;;33.38;20.45;;;-0.20;99.90;;;;;;4983479;28;20046;-79
2022/01/13 05:35:01;;;;;;;36.22;20.38;;;-0.20;99.90;;;;;;4967767;28;20034;-78
2022/01/13 05:37:27;;;;;;;34.83;19.70;;;-0.20;99.90;;;;;;4967166;28;20046;-78
2022/01/13 05:39:53;;;;;;;33.28;18.83;;;-0.20;99.90;;;;;;4985326;28;20029;-80
2022/01/13 05:42:19;;;;;;;35.50;19.77;;;-0.30;99.90;;;;;;4952104;28;20048;-80
2022/01/13 05:44:45;;;;;;;35.88;20.33;;;-0.30;99.90;;;;;;4968646;28;20261;-82
2022/01/13 05:47:12;;;;;;;35.28;20.08;;;-0.30;99.90;;;;;;4968459;28;20064;-80
2022/01/13 05:49:40;;;;;;;35.42;21.08;;;-0.30;99.90;;;;;;4984720;28;20031;-80
2022/01/13 05:52:15;;;;;;;31.92;18.75;;;-0.40;99.90;;;;;;4968474;28;20225;-80
2022/01/13 05:54:41;;;;;;;35.17;20.30;;;-0.30;99.90;;;;;;4946945;28;20034;-81
2022/01/13 05:57:07;;;;;;;38.75;21.10;;;-0.30;99.90;;;;;;4951227;28;20045;-80
2022/01/13 05:59:33;;;;;;;33.58;20.05;;;-0.40;99.90;;;;;;4966988;28;20062;-80
2022/01/13 06:01:59;;;;;;;33.58;19.35;;;-0.30;99.90;;;;;;4960139;28;20028;-80
2022/01/13 06:04:25;;;;;;;36.08;19.95;;;-0.20;99.90;;;;;;4963300;28;20038;-80
2022/01/13 06:06:54;;;;;;;33.65;19.95;;;-0.30;99.90;;;;;;4967820;28;20031;-81
2022/01/13 06:09:20;;;;;;;34.90;20.85;;;-0.30;99.90;;;;;;4967114;28;20037;-80
2022/01/13 06:11:57;;;;;;;34.78;20.38;;;-0.40;99.90;;;;;;4983234;28;20235;-80
2022/01/13 06:14:23;;;;;;;35.50;20.17;;;-0.40;99.90;;;;;;4951026;28;20250;-79
2022/01/13 06:16:49;;;;;;;35.38;19.27;;;-0.40;99.90;;;;;;4984029;28;20043;-80
2022/01/13 06:19:15;;;;;;;32.88;19.95;;;-0.30;99.90;;;;;;4967030;28;20062;-79
2022/01/13 06:21:41;;;;;;;34.47;19.65;;;-0.30;99.90;;;;;;4951090;28;20019;-79
2022/01/13 06:24:07;;;;;;;35.80;21.10;;;-0.30;99.90;;;;;;4967235;28;20097;-80
2022/01/13 06:26:33;;;;;;;33.58;19.35;;;-0.20;99.90;;;;;;4983887;28;20027;-79
2022/01/13 06:28:58;;;;;;;35.80;20.45;;;-0.20;99.90;;;;;;4984244;28;20046;-78
2022/01/13 06:31:24;;;;;;;36.10;21.67;;;-0.40;99.90;;;;;;4983095;28;20047;-78
2022/01/13 06:33:50;;;;;;;35.97;20.67;;;-0.40;99.90;;;;;;4984550;28;20034;-79
2022/01/13 06:36:16;;;;;;;35.22;20.38;;;-0.30;99.90;;;;;;4983815;28;20093;-79
2022/01/13 06:38:42;;;;;;;36.72;21.38;;;-0.10;99.90;;;;;;4983820;28;20086;-79
2022/01/13 06:41:08;;;;;;;36.63;20.85;;;-0.20;99.90;;;;;;4966774;28;20113;-79
2022/01/13 06:43:35;;;;;;;34.42;19.88;;;-0.20;99.90;;;;;;4983400;28;20030;-80
2022/01/13 06:46:01;;;;;;;36.40;19.70;;;-0.10;99.90;;;;;;4966272;28;20065;-78
2022/01/13 06:48:27;;;;;;;32.65;20.45;;;-0.20;99.90;;;;;;4983409;28;20026;-79
2022/01/13 06:50:52;;;;;;;33.13;19.77;;;-0.10;99.90;;;;;;4966744;28;20085;-79
2022/01/13 06:53:20;;;;;;;35.70;20.42;;;0.00;99.90;;;;;;4983428;28;20054;-79
2022/01/13 06:55:49;;;;;;;38.75;21.10;;;0.10;99.90;;;;;;4983783;28;20085;-78
2022/01/13 06:58:14;;;;;;;42.20;21.35;;;0.10;99.90;;;;;;4983671;28;20265;-79
2022/01/13 07:00:40;;;;;;;40.38;22.45;;;-0.10;99.90;;;;;;4962818;28;20038;-80
2022/01/13 07:03:06;;;;;;;39.83;21.25;;;-0.10;99.90;;;;;;4963479;28;20039;-81
2022/01/13 07:05:32;;;;;;;36.97;21.00;;;0.00;99.90;;;;;;4982184;28;20027;-81
2022/01/13 07:07:58;;;;;;;44.50;21.40;;;-0.10;99.90;;;;;;4959019;28;20037;-84
2022/01/13 07:10:36;;;;;;;38.25;20.17;;;0.00;99.90;;;;;;4971189;28;20034;-80
2022/01/13 07:13:03;;;;;;;37.58;20.17;;;0.00;99.90;;;;;;4964488;29;20050;-78
2022/01/13 07:15:31;;;;;;;37.50;21.05;;;0.10;99.90;;;;;;4963006;28;20061;-80
2022/01/13 07:18:00;;;;;;;35.72;20.73;;;-0.10;99.90;;;;;;4965740;28;20027;-80
2022/01/13 07:20:27;;;;;;;38.95;21.27;;;-0.10;99.90;;;;;;4982620;28;20208;-78
2022/01/13 07:22:53;;;;;;;38.72;21.63;;;-0.30;99.90;;;;;;4982318;28;20026;-78
2022/01/13 07:25:19;;;;;;;41.90;21.60;;;-0.40;99.90;;;;;;4983128;28;20028;-79
2022/01/13 07:27:46;;;;;;;42.13;21.85;;;-0.30;99.90;;;;;;4950018;28;20336;-80
2022/01/13 07:30:12;;;;;;;37.50;21.55;;;-0.30;99.90;;;;;;4982738;28;20030;-79
2022/01/13 07:32:39;;;;;;;42.85;22.35;;;-0.40;99.90;;;;;;4983151;28;20026;-79
2022/01/13 07:35:06;;;;;;;39.80;21.77;;;-0.40;99.90;;;;;;4930787;29;20281;-79
2022/01/13 07:37:32;;;;;;;39.05;21.38;;;-0.30;99.90;;;;;;4946006;29;20054;-80
2022/01/13 07:39:58;;;;;;;40.33;22.23;;;-0.30;99.90;;;;;;4947776;29;20027;-79
2022/01/13 07:42:25;;;;;;;40.40;21.55;;;-0.20;99.90;;;;;;4963352;29;20031;-79
2022/01/13 07:44:52;;;;;;;37.22;20.05;;;-0.10;99.90;;;;;;4946808;29;20026;-80
2022/01/13 07:47:18;;;;;;;29.88;16.85;;;0.00;99.90;;;;;;4963138;29;20047;-80
2022/01/13 07:49:44;;;;;;;39.38;22.10;;;-0.10;99.90;;;;;;4962412;28;20035;-82
2022/01/13 07:52:10;;;;;;;41.25;21.33;;;0.00;99.90;;;;;;4962587;28;20214;-79
2022/01/13 07:54:36;;;;;;;41.85;21.77;;;0.00;99.90;;;;;;4963085;29;20039;-79
2022/01/13 07:57:02;;;;;;;39.42;21.95;;;0.00;99.90;;;;;;4930998;29;20031;-82
2022/01/13 07:59:29;;;;;;;39.83;20.90;;;-0.10;99.90;;;;;;4963344;29;20122;-81
2022/01/13 08:01:56;;;;;;;40.95;22.27;;;-0.10;99.90;;;;;;4963050;29;20062;-80
2022/01/13 08:04:21;;;;;;;42.65;22.60;;;0.10;99.90;;;;;;4960998;28;20026;-81
2022/01/13 08:06:48;;;;;;;43.47;22.42;;;0.10;99.90;;;;;;4966128;28;20034;-82
2022/01/13 08:09:14;;;;;;;39.53;22.40;;;0.00;99.90;;;;;;4982731;28;20105;-79
2022/01/13 08:11:39;;;;;;;34.15;19.88;;;0.10;99.90;;;;;;4949283;28;20034;-80
2022/01/13 08:14:05;;;;;;;34.35;19.20;;;0.20;99.90;;;;;;4966182;28;20334;-81
2022/01/13 08:16:36;;;;;;;32.45;19.60;;;0.40;99.90;;;;;;4966671;28;20296;-78
2022/01/13 08:21:47;;;;;;;32.72;19.40;;;0.50;99.90;;;;;;4986727;28;20047;-79
2022/01/13 08:24:13;;;;;;;40.10;21.75;;;0.60;99.90;;;;;;4969512;28;20274;-80
2022/01/13 08:26:39;;;;;;;31.55;19.20;;;0.50;99.90;;;;;;4968977;28;20115;-79
2022/01/13 08:29:05;;;;;;;35.90;20.35;;;0.30;99.90;;;;;;4986910;28;20027;-79
2022/01/13 08:31:31;;;;;;;37.20;20.85;;;0.30;99.90;;;;;;4968418;28;20039;-79
2022/01/13 08:33:57;;;;;;;41.25;21.67;;;0.00;99.90;;;;;;4949630;29;20030;-78
2022/01/13 08:36:23;;;;;;;38.65;20.95;;;0.00;99.90;;;;;;4965831;29;20027;-79
2022/01/13 08:38:49;;;;;;;33.28;20.05;;;-0.10;99.90;;;;;;4966562;29;20043;-79
2022/01/13 08:41:16;;;;;;;37.00;20.45;;;0.00;99.90;;;;;;4966503;29;20326;-79
2022/01/13 08:43:42;;;;;;;34.38;20.10;;;0.00;99.90;;;;;;4948787;29;20023;-81
2022/01/13 08:46:08;;;;;;;37.40;21.33;;;0.10;99.90;;;;;;4964874;28;20094;-81
2022/01/13 08:48:35;;;;;;;35.35;19.45;;;0.10;99.90;;;;;;4949649;29;20037;-80
2022/01/13 08:51:01;;;;;;;33.92;20.67;;;0.10;99.90;;;;;;4949830;29;20085;-80
2022/01/13 08:53:27;;;;;;;34.85;21.05;;;-0.10;99.90;;;;;;4949019;29;20034;-80
2022/01/13 08:55:55;;;;;;;37.33;21.00;;;-0.20;99.90;;;;;;4949101;29;20035;-80
2022/01/13 08:58:24;;;;;;;40.50;22.48;;;-0.20;99.90;;;;;;4948952;29;20078;-78
2022/01/13 09:00:51;;;;;;;37.03;20.52;;;-0.20;99.90;;;;;;4948762;29;20039;-79
2022/01/13 09:03:17;;;;;;;35.20;20.40;;;-0.20;99.90;;;;;;4955699;28;20065;-79
2022/01/13 09:05:44;;;;;;;40.03;21.13;;;-0.10;99.90;;;;;;4985188;28;20046;-80
2022/01/13 09:08:12;;;;;;;36.28;20.85;;;0.00;99.90;;;;;;4985489;28;20037;-80
2022/01/13 09:10:40;;;;;;;36.92;21.10;;;0.20;99.90;;;;;;4985262;28;20142;-80
2022/01/13 09:13:12;;;;;;;39.58;21.90;;;0.20;99.90;;;;;;4985774;28;20038;-80
2022/01/13 09:15:43;;;;;;;38.80;21.35;;;0.20;99.90;;;;;;4967420;28;20114;-80
2022/01/13 09:18:15;;;;;;;35.13;19.45;;;0.20;99.90;;;;;;4968526;28;20078;-80
2022/01/13 09:20:41;;;;;;;32.60;19.65;;;0.40;99.90;;;;;;4967477;28;20043;-81
2022/01/13 09:23:07;;;;;;;36.17;20.48;;;0.70;99.90;;;;;;4968266;28;20037;-80
2022/01/13 09:25:34;;;;;;;36.83;19.58;;;0.90;99.90;;;;;;4984929;28;20333;-79
2022/01/13 09:28:02;;;;;;;29.35;18.35;;;0.90;99.90;;;;;;4969440;28;20026;-78
2022/01/13 09:30:28;;;;;;;34.63;19.27;;;0.90;99.90;;;;;;4966863;28;20050;-79
2022/01/13 09:32:54;;;;;;;36.05;19.88;;;1.00;99.90;;;;;;4967893;28;20026;-79
2022/01/13 09:35:21;;;;;;;36.00;21.00;;;1.00;99.90;;;;;;4985969;28;20046;-79
2022/01/13 09:37:47;;;;;;;36.20;19.58;;;0.90;99.90;;;;;;4952050;28;20089;-80
2022/01/13 09:40:14;;;;;;;33.80;19.48;;;0.90;99.90;;;;;;4967759;28;20034;-80
2022/01/13 09:42:42;;;;;;;33.63;20.40;;;1.00;99.90;;;;;;4984399;28;20089;-81
2022/01/13 09:45:09;;;;;;;37.38;20.50;;;1.00;99.90;;;;;;4951707;28;20026;-80
2022/01/13 09:47:36;;;;;;;32.40;18.60;;;1.00;99.90;;;;;;4967333;28;20069;-80
2022/01/13 09:50:09;;;;;;;37.15;19.40;;;1.10;99.90;;;;;;4985135;28;20041;-82
2022/01/13 09:52:36;;;;;;;35.03;19.92;;;1.20;99.90;;;;;;4984540;28;20043;-79
2022/01/13 09:55:04;;;;;;;35.55;19.23;;;1.20;99.90;;;;;;4967515;28;20030;-79
2022/01/13 09:57:29;;;;;;;35.67;19.70;;;1.30;99.90;;;;;;4983930;28;20049;-79
2022/01/13 09:59:58;;;;;;;31.83;18.90;;;1.40;99.90;;;;;;4967530;28;20030;-79
2022/01/13 10:02:24;;;;;;;36.20;19.92;;;1.40;99.90;;;;;;4966404;28;20051;-80
2022/01/13 10:04:56;;;;;;;35.35;19.63;;;1.60;99.90;;;;;;4967420;28;20035;-80
2022/01/13 10:07:41;;;;;;;33.38;17.92;;;1.60;99.90;;;;;;4966790;28;20081;-81
2022/01/13 10:10:17;;;;;;;35.38;18.67;;;1.70;99.90;;;;;;4967435;28;20031;-80
2022/01/13 10:12:45;;;;;;;31.58;17.40;;;1.90;99.90;;;;;;4984305;28;20101;-81
2022/01/13 10:18:06;;;;;;;33.70;19.58;;;1.90;99.90;;;;;;4984422;28;20073;-80
2022/01/13 10:20:33;;;;;;;36.40;19.63;;;1.80;99.90;;;;;;4950367;28;20031;-79
2022/01/13 10:23:12;;;;;;;34.88;18.65;;;1.90;99.90;;;;;;4963007;28;20039;-80
2022/01/13 10:25:45;;;;;;;34.47;17.35;;;2.00;99.90;;;;;;4962848;28;20098;-80
2022/01/13 10:28:22;;;;;;;31.30;16.95;;;2.10;99.90;;;;;;4946796;29;20036;-81
2022/01/13 10:30:51;;;;;;;30.05;17.23;;;2.20;99.90;;;;;;4962490;29;20093;-80
2022/01/13 10:33:18;;;;;;;;;;;2.20;99.90;;;;;;4963274;29;20365;-80
2022/01/13 10:35:45;;;;;;;27.27;15.35;;;2.30;99.90;;;;;;4943678;29;19937;-80
2022/01/13 10:38:16;;;;;;;31.30;16.00;;;2.40;99.90;;;;;;4927579;29;20082;-78
2022/01/13 10:40:47;;;;;;;29.10;16.13;;;2.50;99.90;;;;;;4942102;29;20035;-79
2022/01/13 10:43:22;;;;;;;25.80;15.43;;;2.60;99.90;;;;;;4927832;29;20047;-80
2022/01/13 10:45:55;;;;;;;29.52;15.20;;;2.80;99.90;;;;;;4950621;29;20058;-80
2022/01/13 10:48:26;;;;;;;27.25;15.18;;;2.90;99.90;;;;;;4961597;29;20043;-79
2022/01/13 10:51:05;;;;;;;26.80;15.63;;;3.20;99.90;;;;;;4946349;29;20035;-79
2022/01/13 10:53:36;;;;;;;27.52;15.38;;;3.60;99.90;;;;;;4952681;28;20039;-79
2022/01/13 10:56:02;;;;;;;28.75;14.70;;;4.10;99.90;;;;;;4984126;28;20082;-81
2022/01/13 10:58:34;;;;;;;24.65;14.40;;;4.40;99.90;;;;;;4980036;28;20030;-79
2022/01/13 11:01:00;;;;;;;24.90;14.38;;;5.10;99.90;;;;;;4983019;28;20039;-79
2022/01/13 11:03:30;;;;;;;22.98;13.48;;;5.50;99.90;;;;;;4965860;28;20155;-79
2022/01/13 11:05:56;;;;;;;23.55;13.77;;;5.80;99.90;;;;;;4966369;28;20117;-79
2022/01/13 11:08:40;;;;;;;22.70;13.48;;;5.70;99.90;;;;;;4969142;28;20082;-80
2022/01/13 11:11:06;;;;;;;23.83;13.02;;;5.80;99.90;;;;;;4931350;29;20038;-80
2022/01/13 11:13:38;;;;;;;23.25;13.55;;;6.40;99.90;;;;;;4963493;29;20035;-80
2022/01/13 11:16:04;;;;;;;23.52;13.52;;;6.60;99.90;;;;;;4963742;28;20311;-80
2022/01/13 11:18:33;;;;;;;20.55;12.23;;;6.90;99.90;;;;;;4946799;29;20051;-78
2022/01/13 11:21:01;;;;;;;17.73;11.95;;;7.30;99.90;;;;;;4963877;28;20095;-79
2022/01/13 11:23:27;;;;;;;19.75;11.88;;;8.20;99.90;;;;;;4946518;29;20044;-79
2022/01/13 11:25:56;;;;;;;19.77;11.38;;;8.50;99.90;;;;;;4947255;29;20026;-77
2022/01/13 11:28:23;;;;;;;17.05;11.63;;;9.10;99.90;;;;;;4946575;29;20319;-79
2022/01/13 11:30:50;;;;;;;17.60;11.68;;;9.80;99.10;;;;;;4963275;28;20353;-79
2022/01/13 11:33:22;;;;;;;16.98;10.68;;;10.30;98.00;;;;;;4932763;29;20328;-79
2022/01/13 11:35:58;;;;;;;16.33;11.10;;;10.50;97.60;;;;;;4949918;28;20086;-79
2022/01/13 11:38:39;;;;;;;17.20;12.55;;;10.70;97.00;;;;;;4982755;28;20055;-80
2022/01/13 11:41:07;;;;;;;16.02;11.40;;;11.10;96.40;;;;;;4966092;28;20321;-78
2022/01/13 11:43:38;;;;;;;17.17;11.43;;;11.30;96.70;;;;;;4982432;28;20031;-80
2022/01/13 11:46:12;;;;;;;15.52;10.63;;;12.50;95.10;;;;;;4965632;28;20038;-80
2022/01/13 11:48:42;;;;;;;13.45;9.27;;;12.50;93.70;;;;;;4965117;28;20030;-79
2022/01/13 11:51:19;;;;;;;14.00;9.93;;;12.80;93.10;;;;;;4984523;28;20053;-79
2022/01/13 11:54:00;;;;;;;16.40;11.52;;;12.70;93.20;;;;;;4969875;28;20044;-79
2022/01/13 11:56:27;;;;;;;15.40;10.88;;;12.30;92.60;;;;;;4969316;28;20038;-79
2022/01/13 11:58:54;;;;;;;13.93;10.35;;;12.90;92.10;;;;;;4987082;28;20297;-80
2022/01/13 12:01:24;;;;;;;14.13;10.57;;;13.10;93.00;;;;;;4979810;28;20274;-81
2022/01/13 12:03:51;;;;;;;14.02;9.98;;;13.40;91.70;;;;;;4982067;28;20031;-80
2022/01/13 12:06:33;;;;;;;13.05;9.25;;;13.30;91.20;;;;;;4986677;28;20105;-79
2022/01/13 12:08:59;;;;;;;13.60;10.07;;;14.40;90.70;;;;;;4986900;28;20023;-81
2022/01/13 12:11:58;;;;;;;18.10;10.93;;;14.70;89.90;;;;;;4968984;28;20023;-81
2022/01/13 12:14:24;;;;;;;12.68;9.25;;;15.40;89.10;;;;;;4912030;28;20045;-80
2022/01/13 12:16:51;;;;;;;15.35;10.50;;;16.20;86.10;;;;;;4985831;28;20046;-81
2022/01/13 12:19:33;;;;;;;13.63;10.13;;;16.80;84.20;;;;;;4986365;28;20135;-80
2022/01/13 12:22:03;;;;;;;11.98;10.32;;;16.60;82.80;;;;;;4947531;29;20174;-80
2022/01/13 12:25:03;;;;;;;17.83;10.98;;;17.20;82.30;;;;;;4949733;29;20198;-80
2022/01/13 12:27:34;;;;;;;17.17;12.05;;;16.50;80.70;;;;;;4928950;28;20059;-80
2022/01/13 12:30:06;;;;;;;18.88;13.48;;;16.90;80.30;;;;;;4968869;28;20027;-80
2022/01/13 12:32:34;;;;;;;17.85;12.98;;;17.10;79.90;;;;;;4985127;28;20043;-80
2022/01/13 12:34:59;;;;;;;18.85;13.40;;;18.00;78.20;;;;;;4968527;28;20046;-80
2022/01/13 12:37:27;;;;;;;17.77;13.27;;;18.20;78.80;;;;;;4968030;28;20055;-81
2022/01/13 12:39:58;;;;;;;17.33;13.53;;;17.70;77.50;;;;;;4986396;28;20027;-81
2022/01/13 12:42:36;;;;;;;18.45;13.43;;;17.30;77.60;;;;;;4968352;28;20297;-81
2022/01/13 12:47:59;;;;;;;17.73;12.55;;;17.00;77.30;;;;;;4949838;29;20371;-82
2022/01/13 12:50:29;;;;;;;18.20;12.07;;;16.30;76.30;;;;;;4965680;29;20078;-85
2022/01/13 12:53:20;;;;;;;16.48;11.43;;;16.60;77.80;;;;;;4965949;28;20106;-81
2022/01/13 12:55:58;;;;;;;14.25;11.15;;;16.60;78.30;;;;;;4949337;28;20035;-82
2022/01/13 12:58:27;;;;;;;15.82;11.35;;;16.10;77.50;;;;;;4949094;29;20370;-82
2022/01/13 13:01:05;;;;;;;12.65;10.52;;;15.20;77.90;;;;;;4949270;29;20125;-80
2022/01/13 13:03:31;;;;;;;13.90;9.68;;;14.70;81.50;;;;;;4932122;29;20027;-81
2022/01/13 13:06:07;;;;;;;18.50;11.68;;;14.90;82.50;;;;;;4955543;28;20034;-83
2022/01/13 13:08:33;;;;;;;17.30;10.82;;;14.10;80.70;;;;;;4968154;28;20081;-80
2022/01/13 13:11:01;;;;;;;16.95;12.32;;;14.30;82.00;;;;;;4952210;28;20207;-79
2022/01/13 13:13:29;;;;;;;16.90;12.70;;;14.10;81.10;;;;;;4952044;28;20030;-80
2022/01/13 13:16:10;;;;;;;22.35;14.63;;;13.80;82.70;;;;;;4985077;28;20202;-82